Главная страница
METAR-TAF:

METAR-TAF

Аэропорты :

Харбин, Китай

Тайпин

широта: 45-45N, долгота: 126-46E, высота над уровнем моря: 143 м

Текущие метеонаблюдения

Эта сводка был подготовлена 42 минут назад, в 21:00 UTC
Ветер 14 Узел от юго-западный
Температура 13°C
Влажность 33%
Давление 1000 hPa
Видимость 10 км и более
Нет облачности ниже 1500 м, и нет кучево-дождевой облачности

METAR: ZYHB 252100Z 22007MPS CAVOK 13/M03 Q1000 BECMG TL2230 31005MPS

Время: 05:42 (21:42 UTC)

Прогноз

Эта сводка был подготовлена 8 часа и 9 минут назад, в 13:33 UTC
Прогноз действительный с 25-го 18 UTC до 26-го 18 UTC
Ветер 12 Узел от западный-юго-западный с порывами до 25 Узел
Видимость: 6000 м
небольшая облачность на высоте 3000 фута
изменения
С 25-го 21 UTC до 25-го 23 UTC
Ветер 17 Узел от северно-северо-западный с порывами до 31 Узел

TAF: ZYHB 251333Z 2518/2618 24006G13MPS 6000 FEW030 TX15/2519Z TN05/2518Z BECMG 2521/2523 34009G16MPS

Метеонаблюдения и прогнозы для более 4000 аэропортов (сводки METAR и TAF).

Имеющиеся станции представлены на карте желтыми и красными точками.

Чтобы увидеть название станции, наведите на нее мышь.

Затем щелкните, чтобы увидеть метеонаблюдения и метеопрогнозы.

Управление картой: чтобы увеличить масштаб, щелкните зеленые кнопки с черным крестиком; чтобы уменьшить масштаб, щелкните зеленую кнопку с тире; для просмотра соседних карт щелкайте зеленые стрелки.


METAR-TAF: